sensor_id;sensor_type;location;lat;lon;timestamp;temperature;humidity
25622;DHT22;13487;39.360;22.962;2023-02-28T00:00:18;15.40;99.90
25622;DHT22;13487;39.360;22.962;2023-02-28T00:02:45;15.40;85.30
25622;DHT22;13487;39.360;22.962;2023-02-28T00:05:14;15.40;97.80
25622;DHT22;13487;39.360;22.962;2023-02-28T00:07:40;15.50;99.90
25622;DHT22;13487;39.360;22.962;2023-02-28T00:10:07;15.50;1.00
25622;DHT22;13487;39.360;22.962;2023-02-28T00:12:35;15.60;1.00
25622;DHT22;13487;39.360;22.962;2023-02-28T00:15:02;15.60;1.00
25622;DHT22;13487;39.360;22.962;2023-02-28T00:17:30;15.70;1.00
25622;DHT22;13487;39.360;22.962;2023-02-28T00:19:56;15.70;5.70
25622;DHT22;13487;39.360;22.962;2023-02-28T00:22:22;15.90;99.90
25622;DHT22;13487;39.360;22.962;2023-02-28T00:24:48;16.10;1.00
25622;DHT22;13487;39.360;22.962;2023-02-28T00:27:14;16.00;1.00
25622;DHT22;13487;39.360;22.962;2023-02-28T00:29:40;16.00;1.00
25622;DHT22;13487;39.360;22.962;2023-02-28T00:32:06;16.10;1.00
25622;DHT22;13487;39.360;22.962;2023-02-28T00:34:32;16.00;99.90
25622;DHT22;13487;39.360;22.962;2023-02-28T00:37:07;15.70;1.00
25622;DHT22;13487;39.360;22.962;2023-02-28T00:39:36;15.30;99.90
25622;DHT22;13487;39.360;22.962;2023-02-28T00:42:03;15.40;99.90
25622;DHT22;13487;39.360;22.962;2023-02-28T00:44:29;15.50;1.00
25622;DHT22;13487;39.360;22.962;2023-02-28T00:46:55;15.50;1.00
25622;DHT22;13487;39.360;22.962;2023-02-28T00:49:22;15.70;99.90
25622;DHT22;13487;39.360;22.962;2023-02-28T00:51:49;15.60;99.90
25622;DHT22;13487;39.360;22.962;2023-02-28T00:54:15;15.70;59.60
25622;DHT22;13487;39.360;22.962;2023-02-28T00:56:41;15.70;1.00
25622;DHT22;13487;39.360;22.962;2023-02-28T00:59:06;15.50;1.00
25622;DHT22;13487;39.360;22.962;2023-02-28T01:01:32;15.60;1.00
25622;DHT22;13487;39.360;22.962;2023-02-28T01:03:58;15.70;1.00
25622;DHT22;13487;39.360;22.962;2023-02-28T01:06:24;15.40;24.80
25622;DHT22;13487;39.360;22.962;2023-02-28T01:08:50;15.30;1.00
25622;DHT22;13487;39.360;22.962;2023-02-28T01:11:17;14.90;99.90
25622;DHT22;13487;39.360;22.962;2023-02-28T01:13:45;14.90;99.90
25622;DHT22;13487;39.360;22.962;2023-02-28T01:16:11;14.90;1.00
25622;DHT22;13487;39.360;22.962;2023-02-28T01:18:38;14.90;1.00
25622;DHT22;13487;39.360;22.962;2023-02-28T01:21:05;15.00;1.00
25622;DHT22;13487;39.360;22.962;2023-02-28T01:23:31;14.90;99.90
25622;DHT22;13487;39.360;22.962;2023-02-28T01:26:04;14.80;1.00
25622;DHT22;13487;39.360;22.962;2023-02-28T01:28:30;14.90;1.00
25622;DHT22;13487;39.360;22.962;2023-02-28T01:30:55;15.00;42.50
25622;DHT22;13487;39.360;22.962;2023-02-28T01:33:21;15.00;1.00
25622;DHT22;13487;39.360;22.962;2023-02-28T01:35:47;15.00;99.90
25622;DHT22;13487;39.360;22.962;2023-02-28T01:38:13;15.00;99.90
25622;DHT22;13487;39.360;22.962;2023-02-28T01:40:38;15.10;99.90
25622;DHT22;13487;39.360;22.962;2023-02-28T01:43:17;14.90;1.00
25622;DHT22;13487;39.360;22.962;2023-02-28T01:45:44;14.80;99.90
25622;DHT22;13487;39.360;22.962;2023-02-28T01:48:10;14.80;1.00
25622;DHT22;13487;39.360;22.962;2023-02-28T01:50:40;15.10;1.00
25622;DHT22;13487;39.360;22.962;2023-02-28T01:53:10;15.30;99.90
25622;DHT22;13487;39.360;22.962;2023-02-28T01:55:37;15.40;1.00
25622;DHT22;13487;39.360;22.962;2023-02-28T01:58:06;15.40;1.00
25622;DHT22;13487;39.360;22.962;2023-02-28T02:00:34;15.20;38.30
25622;DHT22;13487;39.360;22.962;2023-02-28T02:03:07;15.10;1.00
25622;DHT22;13487;39.360;22.962;2023-02-28T02:05:37;15.10;1.00
25622;DHT22;13487;39.360;22.962;2023-02-28T02:08:06;15.00;99.90
25622;DHT22;13487;39.360;22.962;2023-02-28T02:10:44;14.90;99.90
25622;DHT22;13487;39.360;22.962;2023-02-28T02:18:53;15.20;1.00
25622;DHT22;13487;39.360;22.962;2023-02-28T02:35:27;15.50;99.90
25622;DHT22;13487;39.360;22.962;2023-02-28T02:38:18;15.60;1.00
25622;DHT22;13487;39.360;22.962;2023-02-28T02:43:44;15.10;99.90
25622;DHT22;13487;39.360;22.962;2023-02-28T02:46:26;15.00;99.90
25622;DHT22;13487;39.360;22.962;2023-02-28T02:48:55;14.70;99.90
25622;DHT22;13487;39.360;22.962;2023-02-28T02:51:23;14.70;99.90
25622;DHT22;13487;39.360;22.962;2023-02-28T02:54:02;14.60;99.90
25622;DHT22;13487;39.360;22.962;2023-02-28T02:56:32;14.50;99.90
25622;DHT22;13487;39.360;22.962;2023-02-28T02:59:08;14.50;99.90
25622;DHT22;13487;39.360;22.962;2023-02-28T03:01:36;14.70;99.90
25622;DHT22;13487;39.360;22.962;2023-02-28T03:04:07;15.00;1.00
25622;DHT22;13487;39.360;22.962;2023-02-28T03:06:34;15.00;99.90
25622;DHT22;13487;39.360;22.962;2023-02-28T03:09:00;15.00;99.90
25622;DHT22;13487;39.360;22.962;2023-02-28T03:11:27;15.00;1.00
25622;DHT22;13487;39.360;22.962;2023-02-28T03:14:18;14.80;1.00
25622;DHT22;13487;39.360;22.962;2023-02-28T03:17:48;14.60;83.80
25622;DHT22;13487;39.360;22.962;2023-02-28T03:28:16;15.00;1.00
25622;DHT22;13487;39.360;22.962;2023-02-28T03:30:54;15.10;99.90
25622;DHT22;13487;39.360;22.962;2023-02-28T03:33:24;15.20;1.00
25622;DHT22;13487;39.360;22.962;2023-02-28T03:36:01;15.10;99.90
25622;DHT22;13487;39.360;22.962;2023-02-28T03:41:22;14.80;99.60
25622;DHT22;13487;39.360;22.962;2023-02-28T03:43:58;14.60;1.00
25622;DHT22;13487;39.360;22.962;2023-02-28T03:46:28;14.60;1.00
25622;DHT22;13487;39.360;22.962;2023-02-28T03:49:23;14.50;1.00
25622;DHT22;13487;39.360;22.962;2023-02-28T03:51:49;14.40;99.90
25622;DHT22;13487;39.360;22.962;2023-02-28T03:54:19;14.30;1.00
25622;DHT22;13487;39.360;22.962;2023-02-28T03:57:03;14.20;1.00
25622;DHT22;13487;39.360;22.962;2023-02-28T03:59:54;14.40;1.00
25622;DHT22;13487;39.360;22.962;2023-02-28T04:02:22;14.60;68.20
25622;DHT22;13487;39.360;22.962;2023-02-28T04:04:48;14.60;37.60
25622;DHT22;13487;39.360;22.962;2023-02-28T04:07:15;14.60;1.00
25622;DHT22;13487;39.360;22.962;2023-02-28T04:09:41;14.50;1.00
25622;DHT22;13487;39.360;22.962;2023-02-28T04:12:07;14.60;1.00
25622;DHT22;13487;39.360;22.962;2023-02-28T04:14:33;14.80;99.90
25622;DHT22;13487;39.360;22.962;2023-02-28T04:16:59;14.90;99.90
25622;DHT22;13487;39.360;22.962;2023-02-28T04:19:25;14.90;99.90
25622;DHT22;13487;39.360;22.962;2023-02-28T04:21:52;15.10;1.00
25622;DHT22;13487;39.360;22.962;2023-02-28T04:24:21;15.10;99.90
25622;DHT22;13487;39.360;22.962;2023-02-28T04:26:49;15.00;1.00
25622;DHT22;13487;39.360;22.962;2023-02-28T04:29:30;14.90;1.00
25622;DHT22;13487;39.360;22.962;2023-02-28T04:31:57;14.80;1.00
25622;DHT22;13487;39.360;22.962;2023-02-28T04:34:25;14.80;1.00
25622;DHT22;13487;39.360;22.962;2023-02-28T04:36:52;14.90;1.00
25622;DHT22;13487;39.360;22.962;2023-02-28T04:39:20;14.80;1.00
25622;DHT22;13487;39.360;22.962;2023-02-28T04:41:47;14.70;1.00
25622;DHT22;13487;39.360;22.962;2023-02-28T04:44:13;14.70;1.00
25622;DHT22;13487;39.360;22.962;2023-02-28T04:46:39;14.50;1.00
25622;DHT22;13487;39.360;22.962;2023-02-28T04:49:05;14.60;1.00
25622;DHT22;13487;39.360;22.962;2023-02-28T04:51:30;14.60;1.00
25622;DHT22;13487;39.360;22.962;2023-02-28T04:53:56;14.70;1.00
25622;DHT22;13487;39.360;22.962;2023-02-28T04:56:22;14.80;1.00
25622;DHT22;13487;39.360;22.962;2023-02-28T04:58:48;14.70;1.00
25622;DHT22;13487;39.360;22.962;2023-02-28T05:01:28;14.70;1.00
25622;DHT22;13487;39.360;22.962;2023-02-28T05:03:56;14.40;1.00
25622;DHT22;13487;39.360;22.962;2023-02-28T05:06:24;14.10;1.00
25622;DHT22;13487;39.360;22.962;2023-02-28T05:08:50;14.00;1.00
25622;DHT22;13487;39.360;22.962;2023-02-28T05:11:36;13.90;1.00
25622;DHT22;13487;39.360;22.962;2023-02-28T05:14:10;13.70;1.00
25622;DHT22;13487;39.360;22.962;2023-02-28T05:16:36;14.00;1.00
25622;DHT22;13487;39.360;22.962;2023-02-28T05:19:02;14.20;1.00
25622;DHT22;13487;39.360;22.962;2023-02-28T05:21:36;14.20;1.00
25622;DHT22;13487;39.360;22.962;2023-02-28T05:24:05;14.20;1.00
25622;DHT22;13487;39.360;22.962;2023-02-28T05:26:36;14.40;1.00
25622;DHT22;13487;39.360;22.962;2023-02-28T05:29:02;14.40;1.00
25622;DHT22;13487;39.360;22.962;2023-02-28T05:31:28;14.40;1.00
25622;DHT22;13487;39.360;22.962;2023-02-28T05:33:53;14.50;1.00
25622;DHT22;13487;39.360;22.962;2023-02-28T05:36:20;14.50;1.00
25622;DHT22;13487;39.360;22.962;2023-02-28T05:38:47;14.50;1.00
25622;DHT22;13487;39.360;22.962;2023-02-28T05:41:13;14.30;1.00
25622;DHT22;13487;39.360;22.962;2023-02-28T05:43:39;13.90;1.00
25622;DHT22;13487;39.360;22.962;2023-02-28T05:46:06;13.90;1.00
25622;DHT22;13487;39.360;22.962;2023-02-28T05:48:34;13.90;1.00
25622;DHT22;13487;39.360;22.962;2023-02-28T05:51:00;13.80;1.00
25622;DHT22;13487;39.360;22.962;2023-02-28T05:53:26;13.80;1.00
25622;DHT22;13487;39.360;22.962;2023-02-28T05:55:52;14.00;1.00
25622;DHT22;13487;39.360;22.962;2023-02-28T05:58:18;14.10;1.00
25622;DHT22;13487;39.360;22.962;2023-02-28T06:00:44;14.00;1.00
25622;DHT22;13487;39.360;22.962;2023-02-28T06:03:10;13.90;1.00
25622;DHT22;13487;39.360;22.962;2023-02-28T06:05:36;14.00;1.00
25622;DHT22;13487;39.360;22.962;2023-02-28T06:08:02;14.10;1.00
25622;DHT22;13487;39.360;22.962;2023-02-28T06:10:27;14.20;1.00
25622;DHT22;13487;39.360;22.962;2023-02-28T06:12:53;14.30;1.00
25622;DHT22;13487;39.360;22.962;2023-02-28T06:15:19;14.30;1.00
25622;DHT22;13487;39.360;22.962;2023-02-28T06:17:46;14.50;1.00
25622;DHT22;13487;39.360;22.962;2023-02-28T06:20:12;14.60;1.00
25622;DHT22;13487;39.360;22.962;2023-02-28T06:22:39;14.70;1.00
25622;DHT22;13487;39.360;22.962;2023-02-28T06:25:06;14.60;1.00
25622;DHT22;13487;39.360;22.962;2023-02-28T06:27:33;14.60;1.00
25622;DHT22;13487;39.360;22.962;2023-02-28T06:29:59;14.60;1.00
25622;DHT22;13487;39.360;22.962;2023-02-28T06:32:25;14.60;1.00
25622;DHT22;13487;39.360;22.962;2023-02-28T06:34:51;14.60;1.00
25622;DHT22;13487;39.360;22.962;2023-02-28T06:37:17;14.20;1.00
25622;DHT22;13487;39.360;22.962;2023-02-28T06:39:43;14.10;1.00
25622;DHT22;13487;39.360;22.962;2023-02-28T06:42:09;13.80;1.00
25622;DHT22;13487;39.360;22.962;2023-02-28T06:44:35;13.90;1.00
25622;DHT22;13487;39.360;22.962;2023-02-28T06:47:03;14.10;1.00
25622;DHT22;13487;39.360;22.962;2023-02-28T06:49:30;14.00;1.00
25622;DHT22;13487;39.360;22.962;2023-02-28T06:51:56;14.00;1.00
25622;DHT22;13487;39.360;22.962;2023-02-28T06:54:22;14.20;1.00
25622;DHT22;13487;39.360;22.962;2023-02-28T06:56:48;14.30;1.00
25622;DHT22;13487;39.360;22.962;2023-02-28T06:59:14;14.40;1.00
25622;DHT22;13487;39.360;22.962;2023-02-28T07:01:40;14.40;1.00
25622;DHT22;13487;39.360;22.962;2023-02-28T07:04:06;14.40;1.00
25622;DHT22;13487;39.360;22.962;2023-02-28T07:06:32;14.50;1.00
25622;DHT22;13487;39.360;22.962;2023-02-28T07:08:58;14.80;1.00
25622;DHT22;13487;39.360;22.962;2023-02-28T07:11:27;15.00;1.00
25622;DHT22;13487;39.360;22.962;2023-02-28T07:13:56;15.10;1.00
25622;DHT22;13487;39.360;22.962;2023-02-28T07:16:24;15.10;1.00
25622;DHT22;13487;39.360;22.962;2023-02-28T07:18:52;15.00;1.00
25622;DHT22;13487;39.360;22.962;2023-02-28T07:21:18;14.70;1.00
25622;DHT22;13487;39.360;22.962;2023-02-28T07:23:44;14.80;1.00
25622;DHT22;13487;39.360;22.962;2023-02-28T07:26:14;14.60;1.00
25622;DHT22;13487;39.360;22.962;2023-02-28T07:28:46;14.60;1.00
25622;DHT22;13487;39.360;22.962;2023-02-28T07:31:13;14.60;1.00
25622;DHT22;13487;39.360;22.962;2023-02-28T07:33:42;14.50;1.00
25622;DHT22;13487;39.360;22.962;2023-02-28T07:36:10;14.40;1.00
25622;DHT22;13487;39.360;22.962;2023-02-28T07:38:44;14.40;1.00
25622;DHT22;13487;39.360;22.962;2023-02-28T07:41:10;14.60;1.00
25622;DHT22;13487;39.360;22.962;2023-02-28T07:43:36;14.70;1.00
25622;DHT22;13487;39.360;22.962;2023-02-28T07:46:07;15.00;1.00
25622;DHT22;13487;39.360;22.962;2023-02-28T07:48:34;15.20;1.00
25622;DHT22;13487;39.360;22.962;2023-02-28T07:51:00;15.40;1.00
25622;DHT22;13487;39.360;22.962;2023-02-28T07:53:27;15.60;1.00
25622;DHT22;13487;39.360;22.962;2023-02-28T07:55:57;15.60;1.00
25622;DHT22;13487;39.360;22.962;2023-02-28T07:58:24;15.50;1.00
25622;DHT22;13487;39.360;22.962;2023-02-28T08:00:50;15.60;1.00
25622;DHT22;13487;39.360;22.962;2023-02-28T08:03:17;15.70;1.00
25622;DHT22;13487;39.360;22.962;2023-02-28T08:05:43;15.60;1.00
25622;DHT22;13487;39.360;22.962;2023-02-28T08:08:09;15.50;1.00
25622;DHT22;13487;39.360;22.962;2023-02-28T08:10:35;15.30;1.00
25622;DHT22;13487;39.360;22.962;2023-02-28T08:13:01;15.20;1.00
25622;DHT22;13487;39.360;22.962;2023-02-28T08:15:27;15.30;1.00
25622;DHT22;13487;39.360;22.962;2023-02-28T08:17:53;15.30;1.00
25622;DHT22;13487;39.360;22.962;2023-02-28T08:20:22;15.50;1.00
25622;DHT22;13487;39.360;22.962;2023-02-28T08:22:47;15.70;1.00
25622;DHT22;13487;39.360;22.962;2023-02-28T08:25:13;15.90;1.00
25622;DHT22;13487;39.360;22.962;2023-02-28T08:27:39;16.00;1.00
25622;DHT22;13487;39.360;22.962;2023-02-28T08:30:05;16.10;1.00
25622;DHT22;13487;39.360;22.962;2023-02-28T08:32:33;16.20;1.00
25622;DHT22;13487;39.360;22.962;2023-02-28T08:34:59;16.20;1.00
25622;DHT22;13487;39.360;22.962;2023-02-28T08:37:24;16.10;1.00
25622;DHT22;13487;39.360;22.962;2023-02-28T08:39:50;16.00;1.00
25622;DHT22;13487;39.360;22.962;2023-02-28T08:42:16;16.00;1.00
25622;DHT22;13487;39.360;22.962;2023-02-28T08:44:42;16.30;1.00
25622;DHT22;13487;39.360;22.962;2023-02-28T08:47:08;16.30;1.00
25622;DHT22;13487;39.360;22.962;2023-02-28T08:49:34;16.30;1.00
25622;DHT22;13487;39.360;22.962;2023-02-28T08:52:00;16.40;1.00
25622;DHT22;13487;39.360;22.962;2023-02-28T08:54:25;16.20;1.00
25622;DHT22;13487;39.360;22.962;2023-02-28T08:56:51;16.40;1.00
25622;DHT22;13487;39.360;22.962;2023-02-28T08:59:17;16.60;1.00
25622;DHT22;13487;39.360;22.962;2023-02-28T09:01:43;16.50;1.00
25622;DHT22;13487;39.360;22.962;2023-02-28T09:04:09;16.50;1.00
25622;DHT22;13487;39.360;22.962;2023-02-28T09:06:37;16.60;1.00
25622;DHT22;13487;39.360;22.962;2023-02-28T09:09:03;16.60;1.00
25622;DHT22;13487;39.360;22.962;2023-02-28T09:11:32;16.70;1.00
25622;DHT22;13487;39.360;22.962;2023-02-28T09:13:58;16.60;1.00
25622;DHT22;13487;39.360;22.962;2023-02-28T09:16:29;16.40;1.00
25622;DHT22;13487;39.360;22.962;2023-02-28T09:18:55;16.70;1.00
25622;DHT22;13487;39.360;22.962;2023-02-28T09:21:20;16.90;1.00
25622;DHT22;13487;39.360;22.962;2023-02-28T09:23:48;16.90;1.00
25622;DHT22;13487;39.360;22.962;2023-02-28T09:28:41;16.90;1.00
25622;DHT22;13487;39.360;22.962;2023-02-28T09:31:15;17.00;1.00
25622;DHT22;13487;39.360;22.962;2023-02-28T09:33:41;17.00;1.00
25622;DHT22;13487;39.360;22.962;2023-02-28T09:36:07;17.20;1.00
25622;DHT22;13487;39.360;22.962;2023-02-28T09:38:33;17.30;1.00
25622;DHT22;13487;39.360;22.962;2023-02-28T09:41:08;17.40;1.00
25622;DHT22;13487;39.360;22.962;2023-02-28T09:43:38;17.70;1.00
25622;DHT22;13487;39.360;22.962;2023-02-28T09:46:31;17.80;99.90
25622;DHT22;13487;39.360;22.962;2023-02-28T09:49:01;17.50;1.00
25622;DHT22;13487;39.360;22.962;2023-02-28T09:54:19;17.30;99.90
25622;DHT22;13487;39.360;22.962;2023-02-28T09:59:36;17.70;99.90
25622;DHT22;13487;39.360;22.962;2023-02-28T10:05:14;17.70;99.90
25622;DHT22;13487;39.360;22.962;2023-02-28T10:08:18;17.70;99.90
25622;DHT22;13487;39.360;22.962;2023-02-28T10:10:51;17.90;1.00
25622;DHT22;13487;39.360;22.962;2023-02-28T10:16:40;18.20;1.00
25622;DHT22;13487;39.360;22.962;2023-02-28T10:21:57;18.40;1.00
25622;DHT22;13487;39.360;22.962;2023-02-28T10:24:35;18.30;99.90
25622;DHT22;13487;39.360;22.962;2023-02-28T10:27:18;18.30;1.00
25622;DHT22;13487;39.360;22.962;2023-02-28T10:29:55;18.50;1.00
25622;DHT22;13487;39.360;22.962;2023-02-28T10:32:24;18.60;99.90
25622;DHT22;13487;39.360;22.962;2023-02-28T10:35:16;18.60;99.90
25622;DHT22;13487;39.360;22.962;2023-02-28T10:37:47;18.70;1.00
25622;DHT22;13487;39.360;22.962;2023-02-28T10:42:59;18.80;99.90
25622;DHT22;13487;39.360;22.962;2023-02-28T10:45:25;19.10;1.00
25622;DHT22;13487;39.360;22.962;2023-02-28T10:48:04;19.10;1.00
25622;DHT22;13487;39.360;22.962;2023-02-28T10:58:56;18.20;99.90
25622;DHT22;13487;39.360;22.962;2023-02-28T11:03:57;17.80;1.00
25622;DHT22;13487;39.360;22.962;2023-02-28T11:06:26;17.90;17.90
25622;DHT22;13487;39.360;22.962;2023-02-28T11:08:59;17.80;1.00
25622;DHT22;13487;39.360;22.962;2023-02-28T11:11:28;18.00;99.90
25622;DHT22;13487;39.360;22.962;2023-02-28T11:13:57;18.20;1.00
25622;DHT22;13487;39.360;22.962;2023-02-28T11:16:36;18.20;6.20
25622;DHT22;13487;39.360;22.962;2023-02-28T11:19:05;17.70;1.00
25622;DHT22;13487;39.360;22.962;2023-02-28T11:21:34;17.20;1.00
25622;DHT22;13487;39.360;22.962;2023-02-28T11:24:31;17.20;1.00
25622;DHT22;13487;39.360;22.962;2023-02-28T11:27:01;16.90;1.00
25622;DHT22;13487;39.360;22.962;2023-02-28T11:29:30;16.70;1.00
25622;DHT22;13487;39.360;22.962;2023-02-28T11:32:21;16.60;1.00
25622;DHT22;13487;39.360;22.962;2023-02-28T11:35:14;16.70;1.00
25622;DHT22;13487;39.360;22.962;2023-02-28T11:37:42;16.70;1.00
25622;DHT22;13487;39.360;22.962;2023-02-28T11:40:20;16.60;1.00
25622;DHT22;13487;39.360;22.962;2023-02-28T11:43:30;16.50;1.00
25622;DHT22;13487;39.360;22.962;2023-02-28T11:48:44;16.00;1.00
25622;DHT22;13487;39.360;22.962;2023-02-28T11:51:33;15.90;1.00
25622;DHT22;13487;39.360;22.962;2023-02-28T11:54:30;16.00;1.00
25622;DHT22;13487;39.360;22.962;2023-02-28T11:57:26;15.90;1.00
25622;DHT22;13487;39.360;22.962;2023-02-28T12:05:46;15.30;1.00
25622;DHT22;13487;39.360;22.962;2023-02-28T12:08:58;15.50;1.00
25622;DHT22;13487;39.360;22.962;2023-02-28T12:19:24;15.90;1.00
25622;DHT22;13487;39.360;22.962;2023-02-28T12:24:30;16.00;1.00
25622;DHT22;13487;39.360;22.962;2023-02-28T12:27:02;16.30;1.00
25622;DHT22;13487;39.360;22.962;2023-02-28T12:29:38;16.50;1.00
25622;DHT22;13487;39.360;22.962;2023-02-28T12:32:23;17.00;22.60
25622;DHT22;13487;39.360;22.962;2023-02-28T12:34:56;17.30;85.80
25622;DHT22;13487;39.360;22.962;2023-02-28T12:38:08;17.20;1.00
25622;DHT22;13487;39.360;22.962;2023-02-28T12:41:00;17.20;1.00
25622;DHT22;13487;39.360;22.962;2023-02-28T12:43:34;17.50;1.00
25622;DHT22;13487;39.360;22.962;2023-02-28T12:46:21;17.60;1.00
25622;DHT22;13487;39.360;22.962;2023-02-28T12:49:00;17.70;1.00
25622;DHT22;13487;39.360;22.962;2023-02-28T12:51:30;17.70;1.00
25622;DHT22;13487;39.360;22.962;2023-02-28T12:54:30;17.80;1.00
25622;DHT22;13487;39.360;22.962;2023-02-28T12:59:55;17.80;1.00
25622;DHT22;13487;39.360;22.962;2023-02-28T13:10:54;18.20;1.00
25622;DHT22;13487;39.360;22.962;2023-02-28T13:13:25;18.10;1.00
25622;DHT22;13487;39.360;22.962;2023-02-28T13:16:05;18.10;99.90
25622;DHT22;13487;39.360;22.962;2023-02-28T13:18:39;18.40;99.90
25622;DHT22;13487;39.360;22.962;2023-02-28T13:21:10;18.20;99.90
25622;DHT22;13487;39.360;22.962;2023-02-28T13:26:23;18.30;1.00
25622;DHT22;13487;39.360;22.962;2023-02-28T13:34:35;18.20;99.90
25622;DHT22;13487;39.360;22.962;2023-02-28T13:39:51;18.80;99.90
25622;DHT22;13487;39.360;22.962;2023-02-28T13:47:32;18.90;1.00
25622;DHT22;13487;39.360;22.962;2023-02-28T13:50:35;18.70;31.40
25622;DHT22;13487;39.360;22.962;2023-02-28T13:58:41;18.30;99.90
25622;DHT22;13487;39.360;22.962;2023-02-28T14:01:45;18.40;1.00
25622;DHT22;13487;39.360;22.962;2023-02-28T14:04:50;18.10;99.90
25622;DHT22;13487;39.360;22.962;2023-02-28T14:07:24;17.90;1.00
25622;DHT22;13487;39.360;22.962;2023-02-28T14:10:04;17.60;99.90
25622;DHT22;13487;39.360;22.962;2023-02-28T14:15:38;17.10;1.00
25622;DHT22;13487;39.360;22.962;2023-02-28T14:24:09;17.00;1.00
25622;DHT22;13487;39.360;22.962;2023-02-28T14:32:43;16.80;99.90
25622;DHT22;13487;39.360;22.962;2023-02-28T14:35:57;16.80;1.00
25622;DHT22;13487;39.360;22.962;2023-02-28T14:41:38;16.80;1.00
25622;DHT22;13487;39.360;22.962;2023-02-28T14:46:41;16.90;1.00
25622;DHT22;13487;39.360;22.962;2023-02-28T14:49:20;16.90;1.00
25622;DHT22;13487;39.360;22.962;2023-02-28T14:51:49;16.90;1.00
25622;DHT22;13487;39.360;22.962;2023-02-28T14:54:16;17.00;1.00
25622;DHT22;13487;39.360;22.962;2023-02-28T14:56:49;17.10;1.00
25622;DHT22;13487;39.360;22.962;2023-02-28T14:59:34;17.10;1.00
25622;DHT22;13487;39.360;22.962;2023-02-28T15:02:33;17.20;1.00
25622;DHT22;13487;39.360;22.962;2023-02-28T15:05:01;17.20;99.90
25622;DHT22;13487;39.360;22.962;2023-02-28T15:07:36;17.30;99.90
25622;DHT22;13487;39.360;22.962;2023-02-28T15:12:51;17.20;99.90
25622;DHT22;13487;39.360;22.962;2023-02-28T15:15:19;17.00;99.90
25622;DHT22;13487;39.360;22.962;2023-02-28T15:17:49;17.00;1.00
25622;DHT22;13487;39.360;22.962;2023-02-28T15:20:16;17.00;99.90
25622;DHT22;13487;39.360;22.962;2023-02-28T15:22:45;16.80;1.00
25622;DHT22;13487;39.360;22.962;2023-02-28T15:25:17;16.80;1.00
25622;DHT22;13487;39.360;22.962;2023-02-28T15:27:48;16.90;1.00
25622;DHT22;13487;39.360;22.962;2023-02-28T15:30:18;16.80;1.00
25622;DHT22;13487;39.360;22.962;2023-02-28T15:33:06;17.00;1.00
25622;DHT22;13487;39.360;22.962;2023-02-28T15:35:34;17.10;99.90
25622;DHT22;13487;39.360;22.962;2023-02-28T15:40:54;17.30;99.90
25622;DHT22;13487;39.360;22.962;2023-02-28T15:43:30;17.20;99.90
25622;DHT22;13487;39.360;22.962;2023-02-28T15:46:09;17.30;99.90
25622;DHT22;13487;39.360;22.962;2023-02-28T15:48:55;17.30;99.90
25622;DHT22;13487;39.360;22.962;2023-02-28T15:51:35;17.10;99.90
25622;DHT22;13487;39.360;22.962;2023-02-28T15:54:28;17.20;99.90
25622;DHT22;13487;39.360;22.962;2023-02-28T15:56:55;17.20;99.90
25622;DHT22;13487;39.360;22.962;2023-02-28T15:59:25;17.10;1.00
25622;DHT22;13487;39.360;22.962;2023-02-28T16:04:36;17.00;1.00
25622;DHT22;13487;39.360;22.962;2023-02-28T16:07:04;17.00;1.00
25622;DHT22;13487;39.360;22.962;2023-02-28T16:09:31;16.80;1.00
25622;DHT22;13487;39.360;22.962;2023-02-28T16:12:00;16.70;1.00
25622;DHT22;13487;39.360;22.962;2023-02-28T16:14:30;16.80;1.00
25622;DHT22;13487;39.360;22.962;2023-02-28T16:17:02;16.70;1.00
25622;DHT22;13487;39.360;22.962;2023-02-28T16:19:28;16.70;1.00
25622;DHT22;13487;39.360;22.962;2023-02-28T16:21:54;16.70;1.00
25622;DHT22;13487;39.360;22.962;2023-02-28T16:24:20;16.70;1.00
25622;DHT22;13487;39.360;22.962;2023-02-28T16:26:48;16.70;1.00
25622;DHT22;13487;39.360;22.962;2023-02-28T16:29:24;16.60;1.00
25622;DHT22;13487;39.360;22.962;2023-02-28T16:31:50;16.60;1.00
25622;DHT22;13487;39.360;22.962;2023-02-28T16:34:16;16.50;1.00
25622;DHT22;13487;39.360;22.962;2023-02-28T16:36:42;16.50;1.00
25622;DHT22;13487;39.360;22.962;2023-02-28T16:39:07;16.40;1.00
25622;DHT22;13487;39.360;22.962;2023-02-28T16:41:34;16.40;1.00
25622;DHT22;13487;39.360;22.962;2023-02-28T16:44:00;16.30;1.00
25622;DHT22;13487;39.360;22.962;2023-02-28T16:46:34;16.30;1.00
25622;DHT22;13487;39.360;22.962;2023-02-28T16:49:00;16.30;1.00
25622;DHT22;13487;39.360;22.962;2023-02-28T16:51:26;16.20;1.00
25622;DHT22;13487;39.360;22.962;2023-02-28T16:53:52;16.00;1.00
25622;DHT22;13487;39.360;22.962;2023-02-28T16:56:23;15.80;37.10
25622;DHT22;13487;39.360;22.962;2023-02-28T16:58:51;15.70;52.70
25622;DHT22;13487;39.360;22.962;2023-02-28T17:01:19;15.70;75.20
25622;DHT22;13487;39.360;22.962;2023-02-28T17:03:49;15.70;80.50
25622;DHT22;13487;39.360;22.962;2023-02-28T17:06:21;15.80;56.20
25622;DHT22;13487;39.360;22.962;2023-02-28T17:08:49;15.70;37.50
25622;DHT22;13487;39.360;22.962;2023-02-28T17:11:15;15.80;50.00
25622;DHT22;13487;39.360;22.962;2023-02-28T17:13:41;15.70;19.80
25622;DHT22;13487;39.360;22.962;2023-02-28T17:16:33;15.60;35.20
25622;DHT22;13487;39.360;22.962;2023-02-28T17:19:03;15.50;45.20
25622;DHT22;13487;39.360;22.962;2023-02-28T17:21:29;15.60;60.70
25622;DHT22;13487;39.360;22.962;2023-02-28T17:23:56;15.70;35.40
25622;DHT22;13487;39.360;22.962;2023-02-28T17:26:22;15.50;48.50
25622;DHT22;13487;39.360;22.962;2023-02-28T17:28:53;15.50;46.80
25622;DHT22;13487;39.360;22.962;2023-02-28T17:31:22;15.50;37.80
25622;DHT22;13487;39.360;22.962;2023-02-28T17:33:48;15.60;20.30
25622;DHT22;13487;39.360;22.962;2023-02-28T17:36:24;15.60;28.90
25622;DHT22;13487;39.360;22.962;2023-02-28T17:38:52;15.70;22.60
25622;DHT22;13487;39.360;22.962;2023-02-28T17:41:18;15.60;2.30
25622;DHT22;13487;39.360;22.962;2023-02-28T17:43:44;15.60;5.30
25622;DHT22;13487;39.360;22.962;2023-02-28T17:46:21;15.60;1.10
25622;DHT22;13487;39.360;22.962;2023-02-28T17:48:48;15.60;1.00
25622;DHT22;13487;39.360;22.962;2023-02-28T17:51:15;15.60;1.00
25622;DHT22;13487;39.360;22.962;2023-02-28T17:53:41;15.50;1.00
25622;DHT22;13487;39.360;22.962;2023-02-28T17:56:22;15.40;15.40
25622;DHT22;13487;39.360;22.962;2023-02-28T17:58:49;15.60;83.30
25622;DHT22;13487;39.360;22.962;2023-02-28T18:01:20;15.70;18.30
25622;DHT22;13487;39.360;22.962;2023-02-28T18:03:46;15.90;7.60
25622;DHT22;13487;39.360;22.962;2023-02-28T18:06:19;16.00;1.00
25622;DHT22;13487;39.360;22.962;2023-02-28T18:08:46;15.50;1.00
25622;DHT22;13487;39.360;22.962;2023-02-28T18:11:12;15.20;24.40
25622;DHT22;13487;39.360;22.962;2023-02-28T18:13:46;15.20;50.90
25622;DHT22;13487;39.360;22.962;2023-02-28T18:16:13;15.00;55.70